Etusivu
METAR-TAF:

METAR-TAF

Lentoasemat :

Pori, Suomi

Porin lentoasema

Leveyspiiri: 61-28N, Pituuspiiri: 021-48E, korkeus merenpinnasta: 13 m

Tämänhetkinen sää

Tämä raportti tehtiin 10 minuuttia sitten, kello 14.20 UTC
Tuuli 5 kn idästä/kaakosta, vaihdellen idän/koillisen ja etelän/kaakon välillä
Lämpötila 23°C
Kosteus 44%
Ilmanpaine 1005 hPa
Näkyvyys 10 km tai enemmän

METAR: EFPO 271420Z AUTO 11005KT 070V150 9999 FEW061/// SCT070/// 23/10 Q1005

Aika: 17:30 (14:30 UTC)

Sääennuste

Tämä raportti tehtiin 3 tuntia ja 2 minuuttia sitten, kello 11.28 UTC
Ennuste voimassa 27. päivästä klo 12 UTC - 27. päivään klo 16 UTC
Tuuli 4 kn luoteesta
Näkyvyys 10 km tai enemmän
ei pilviä alle 1500 m:ssä eikä cumulonimbus-pilviä

TAF: EFPO 271128Z 2712/2716 31004KT CAVOK

Säähavainnot ja -ennusteet yli 4000 lentoasemalta (METAR- ja TAF-raportit).

Käytössä olevat sääasemat on merkitty karttaan keltaisilla ja punaisilla pisteillä.

Aseta hiiri pisteen päälle nähdäksesi sääaseman nimen.

Klikkaa sitten nähdäksesi säähavainnot ja -ennusteet.

Kartan vaihtaminen: klikkaa mustalla rastilla varustettuja vihreitä pisteitä, niin voit zoomata sisään; viivalla varustettua vihreää pistettä, niin voit zoomata ulos tai vihreitä nuolia, niin pääset viereisille kartoille.


METAR-TAF: